Startpagina
METAR-TAF:

METAR-TAF

Vliegvelden :

Luchthaven Ouagadougou Internationaal

Ouagadougou, Burkina Faso

breedte: 12-21N, lengte: 001-31W, hoogte: 316 m

Actueel weer

Dit bericht is 30 minuten geleden gemaakt, om 01:00 UTC
Wind 2 kt uit het noordnoordoosten
Temperatuur 20°C
Vochtigheid 21%
Druk 1014 hPa
Zicht 10 km of meer
geen wolken onder 1500 m en geen cumulonimbus

METAR: DFFD 290100Z 03002KT CAVOK 20/M03 Q1014 NOSIG

Tijdstip: 01:30 (01:30 UTC)

Verwachting

Dit bericht is 2 uur en het 30 minuten geleden gemaakt, om 23:00 UTC
Verwachting geldig van 29 om 00 UTC tot 30 om 06 UTC
Wind 10 kt uit het oostnoordoosten
Zicht: 6000 m
Wijzigt naar
van 29 om 04 UTC tot 29 om 06 UTC
Zicht: 3500 m
verspreid stof

TAF: DFFD 282300Z 2900/3006 06010KT 6000 NSC BECMG 2904/2906 3500 DU

Waarnemingen en weersverwachtingen van meer dan 4000 vliegvelden (METAR en TAF).

De beschikbare stations zijn de gele en rode punten op de kaart.

Ga met uw muis naar het station om de naam te zien.

Klik dan om waarnemingen en weersverwachtingen te zien.

kaart wijzigen: klik op de groene knoppen met een zwart kruis om in te zoomen, op de groene knop met een streepje om uit te zoomen of op de groene pijlen voor aangrenzende kaarten.


METAR-TAF: